Time;durP1;ratioP1;P1;durP2;ratioP2;P2;SDS_P1;SDS_P2;PMS_P1;PMS_P2;Temp;Humidity;BMP_temperature;BMP_pressure;BME280_temperature;BME280_humidity;BME280_pressure;Samples;Min_cycle;Max_cycle;Signal;HPM_P1;HPM_P2
2023/05/12 00:02:06;;;;;;;16.58;9.60;;;14.10;99.90;;;;;;5017677;28;20083;-84
2023/05/12 00:04:31;;;;;;;13.77;9.07;;;14.20;99.90;;;;;;5010108;28;20021;-84
2023/05/12 00:06:57;;;;;;;12.18;8.98;;;14.20;99.90;;;;;;5028025;28;20027;-84
2023/05/12 00:09:23;;;;;;;13.32;9.32;;;14.30;99.90;;;;;;5010393;28;20018;-84
2023/05/12 00:11:48;;;;;;;11.27;8.10;;;14.20;99.90;;;;;;5031913;28;20124;-84
2023/05/12 00:14:14;;;;;;;15.25;7.93;;;14.10;99.90;;;;;;5011197;28;20033;-86
2023/05/12 00:16:40;;;;;;;13.15;7.65;;;14.10;99.90;;;;;;5026107;28;20132;-84
2023/05/12 00:19:06;;;;;;;11.52;8.35;;;14.10;99.90;;;;;;5035813;28;20029;-84
2023/05/12 00:21:32;;;;;;;13.23;7.97;;;14.00;99.90;;;;;;5027913;28;20132;-84
2023/05/12 00:24:00;;;;;;;10.27;7.90;;;14.10;99.90;;;;;;5024921;28;20447;-84
2023/05/12 00:26:25;;;;;;;10.88;8.05;;;14.10;99.90;;;;;;5027935;28;20022;-84
2023/05/12 00:28:51;;;;;;;15.15;7.68;;;14.10;99.90;;;;;;5028853;28;20364;-84
2023/05/12 00:31:17;;;;;;;11.88;7.70;;;14.10;99.90;;;;;;5027669;28;20031;-84
2023/05/12 00:33:42;;;;;;;13.32;8.23;;;14.00;99.90;;;;;;5028402;28;20082;-85
2023/05/12 00:36:08;;;;;;;9.60;6.72;;;14.00;99.90;;;;;;5015765;28;20068;-84
2023/05/12 00:38:36;;;;;;;10.68;7.53;;;14.00;99.90;;;;;;5028053;28;20025;-83
2023/05/12 00:41:02;;;;;;;12.38;8.27;;;13.90;99.90;;;;;;5009095;28;20543;-85
2023/05/12 00:43:28;;;;;;;14.13;8.38;;;13.90;99.90;;;;;;5028035;28;20343;-84
2023/05/12 00:45:56;;;;;;;11.43;8.05;;;14.00;99.90;;;;;;5012815;28;20025;-84
2023/05/12 00:48:22;;;;;;;13.30;8.20;;;14.00;99.90;;;;;;5001465;28;20022;-83
2023/05/12 00:50:48;;;;;;;13.55;9.43;;;14.00;99.90;;;;;;5014177;28;20380;-83
2023/05/12 00:53:13;;;;;;;15.38;9.35;;;14.00;99.90;;;;;;5015969;28;20029;-83
2023/05/12 00:55:39;;;;;;;17.80;8.82;;;14.00;99.90;;;;;;5027539;28;20434;-84
2023/05/12 00:58:05;;;;;;;15.90;9.63;;;14.00;99.90;;;;;;5030710;28;20034;-84
2023/05/12 01:00:31;;;;;;;17.95;9.63;;;14.00;99.90;;;;;;5012524;28;20170;-83
2023/05/12 01:02:57;;;;;;;18.20;9.88;;;13.90;99.90;;;;;;5012310;28;20112;-84
2023/05/12 01:05:29;;;;;;;17.98;10.07;;;13.90;99.90;;;;;;5030268;28;20026;-83
2023/05/12 01:07:55;;;;;;;16.80;10.25;;;13.90;99.90;;;;;;5015521;28;20022;-83
2023/05/12 01:10:21;;;;;;;18.27;10.85;;;13.90;99.90;;;;;;5013550;28;20025;-83
2023/05/12 01:12:50;;;;;;;21.63;11.77;;;14.00;99.90;;;;;;5012708;28;20490;-84
2023/05/12 01:15:16;;;;;;;23.52;12.65;;;13.90;99.90;;;;;;5031178;28;20037;-83
2023/05/12 01:17:51;;;;;;;21.60;12.80;;;13.90;99.90;;;;;;5011891;28;20022;-82
2023/05/12 01:20:19;;;;;;;24.92;14.40;;;14.00;99.90;;;;;;5030934;28;20048;-82
2023/05/12 01:22:47;;;;;;;27.48;13.88;;;14.00;99.90;;;;;;5010772;28;20029;-82
2023/05/12 01:25:16;;;;;;;28.63;15.05;;;14.00;99.90;;;;;;5012375;28;20017;-82
2023/05/12 01:27:43;;;;;;;30.75;15.60;;;14.00;99.90;;;;;;5013070;28;20025;-82
2023/05/12 01:30:12;;;;;;;31.40;16.02;;;14.00;99.90;;;;;;5029218;28;20095;-83
2023/05/12 01:32:39;;;;;;;30.80;16.48;;;14.10;99.90;;;;;;5025134;28;20025;-81
2023/05/12 01:35:07;;;;;;;35.67;17.33;;;14.10;99.90;;;;;;5019339;28;20018;-82
2023/05/12 01:37:36;;;;;;;39.85;17.83;;;14.10;99.90;;;;;;5030853;28;20104;-82
2023/05/12 01:40:02;;;;;;;41.33;19.92;;;14.10;99.90;;;;;;5011755;28;20526;-81
2023/05/12 01:42:28;;;;;;;38.35;19.05;;;14.00;99.90;;;;;;5011415;28;20029;-82
2023/05/12 01:44:53;;;;;;;43.75;21.30;;;14.00;99.90;;;;;;5028616;28;20726;-82
2023/05/12 01:47:20;;;;;;;42.58;21.73;;;14.00;99.90;;;;;;5028884;28;20048;-82
2023/05/12 01:49:46;;;;;;;40.53;21.38;;;14.00;99.90;;;;;;5010219;28;20334;-82
2023/05/12 01:52:11;;;;;;;48.28;22.88;;;14.10;99.90;;;;;;5029524;28;20026;-82
2023/05/12 01:54:37;;;;;;;45.22;23.48;;;14.10;99.90;;;;;;5000332;28;20437;-81
2023/05/12 01:57:03;;;;;;;49.50;24.20;;;14.20;99.90;;;;;;5009832;28;20022;-81
2023/05/12 01:59:28;;;;;;;47.67;23.48;;;14.20;99.90;;;;;;5028790;28;20104;-82
2023/05/12 02:01:54;;;;;;;54.35;25.00;;;14.20;99.90;;;;;;5008776;28;20037;-82
2023/05/12 02:04:20;;;;;;;50.17;24.20;;;14.20;99.90;;;;;;5011706;28;20017;-82
2023/05/12 02:06:45;;;;;;;55.58;26.90;;;14.30;99.90;;;;;;5010944;28;20022;-83
2023/05/12 02:09:13;;;;;;;50.75;24.88;;;14.30;99.90;;;;;;5029529;28;20025;-82
2023/05/12 02:11:41;;;;;;;53.50;24.95;;;14.30;99.90;;;;;;5028571;28;20801;-82
2023/05/12 02:14:09;;;;;;;52.28;27.25;;;14.30;99.90;;;;;;5029106;28;20021;-84
2023/05/12 02:16:35;;;;;;;51.58;25.77;;;14.30;99.90;;;;;;5029886;28;20143;-84
2023/05/12 02:19:00;;;;;;;55.45;27.17;;;14.30;99.90;;;;;;5030121;28;20052;-84
2023/05/12 02:21:26;;;;;;;52.42;26.17;;;14.40;99.90;;;;;;5029047;28;20025;-84
2023/05/12 02:23:55;;;;;;;62.33;27.52;;;14.40;99.90;;;;;;5029759;28;20014;-84
2023/05/12 02:26:20;;;;;;;54.83;27.02;;;14.30;99.90;;;;;;5019309;28;20029;-84
2023/05/12 02:28:46;;;;;;;52.95;25.77;;;14.40;99.90;;;;;;5020651;28;20036;-84
2023/05/12 02:31:11;;;;;;;55.55;26.67;;;14.40;99.90;;;;;;5018190;28;20037;-84
2023/05/12 02:33:37;;;;;;;55.90;24.52;;;14.40;99.90;;;;;;5029717;28;20063;-84
2023/05/12 02:36:03;;;;;;;49.03;24.92;;;14.40;99.90;;;;;;5027693;28;20051;-84
2023/05/12 02:38:28;;;;;;;58.35;27.05;;;14.40;99.90;;;;;;5031055;28;20055;-83
2023/05/12 02:40:54;;;;;;;51.17;26.42;;;14.40;99.90;;;;;;5011589;28;20972;-83
2023/05/12 02:43:20;;;;;;;55.88;26.45;;;14.50;99.90;;;;;;5018534;28;21113;-84
2023/05/12 02:45:46;;;;;;;56.72;26.67;;;14.50;99.90;;;;;;5031829;28;20036;-83
2023/05/12 02:48:11;;;;;;;53.63;26.63;;;14.50;99.90;;;;;;5037889;28;20024;-84
2023/05/12 02:50:37;;;;;;;56.97;28.00;;;14.50;99.90;;;;;;5032978;28;20601;-83
2023/05/12 02:53:05;;;;;;;58.22;27.33;;;14.50;99.90;;;;;;5053105;28;20052;-83
2023/05/12 02:55:30;;;;;;;59.38;27.60;;;14.50;99.90;;;;;;5051220;28;20033;-84
2023/05/12 02:57:56;;;;;;;53.88;26.50;;;14.40;99.90;;;;;;5047481;28;20033;-83
2023/05/12 03:00:24;;;;;;;52.20;25.65;;;14.30;99.90;;;;;;5040248;28;20066;-83
2023/05/12 03:02:50;;;;;;;51.92;25.90;;;14.40;99.90;;;;;;5009517;28;20057;-84
2023/05/12 03:05:16;;;;;;;58.08;25.30;;;14.40;99.90;;;;;;5029617;28;20025;-84
2023/05/12 03:07:42;;;;;;;56.25;27.15;;;14.40;99.90;;;;;;5030035;28;20100;-84
2023/05/12 03:10:09;;;;;;;59.50;26.80;;;14.30;99.90;;;;;;5009803;28;20032;-84
2023/05/12 03:12:35;;;;;;;52.92;26.42;;;14.30;99.90;;;;;;5010464;28;20040;-83
2023/05/12 03:15:00;;;;;;;55.67;26.67;;;14.30;99.90;;;;;;5028866;28;20026;-84
2023/05/12 03:17:26;;;;;;;54.13;26.25;;;14.40;99.90;;;;;;5016400;28;20022;-83
2023/05/12 03:19:51;;;;;;;51.60;27.40;;;14.40;99.90;;;;;;5029537;28;20061;-83
2023/05/12 03:22:19;;;;;;;51.97;26.95;;;14.40;99.90;;;;;;5026695;28;20028;-82
2023/05/12 03:24:47;;;;;;;50.25;25.95;;;14.40;99.90;;;;;;5009825;28;20022;-83
2023/05/12 03:27:13;;;;;;;57.30;27.23;;;14.40;99.90;;;;;;5029468;28;20108;-83
2023/05/12 03:29:38;;;;;;;56.97;26.88;;;14.30;99.90;;;;;;5027894;28;20108;-83
2023/05/12 03:32:04;;;;;;;53.83;26.25;;;14.40;99.90;;;;;;5017594;28;20242;-84
2023/05/12 03:34:30;;;;;;;47.88;24.20;;;14.40;99.90;;;;;;5027948;28;20091;-83
2023/05/12 03:36:56;;;;;;;46.15;23.55;;;14.30;99.90;;;;;;5028300;28;20029;-83
2023/05/12 03:39:23;;;;;;;41.33;22.10;;;14.30;99.90;;;;;;5027894;28;20044;-83
2023/05/12 03:41:49;;;;;;;45.55;23.05;;;14.40;99.90;;;;;;5006478;28;20362;-84
2023/05/12 03:44:15;;;;;;;41.00;22.77;;;14.40;99.90;;;;;;5019097;28;20075;-82
2023/05/12 03:46:40;;;;;;;38.15;21.27;;;14.40;99.90;;;;;;5016887;28;20049;-84
2023/05/12 03:49:06;;;;;;;39.67;21.75;;;14.40;99.90;;;;;;5026501;28;20136;-83
2023/05/12 03:51:31;;;;;;;38.08;20.75;;;14.40;99.90;;;;;;5027688;28;20030;-83
2023/05/12 03:53:57;;;;;;;41.58;22.73;;;14.40;99.90;;;;;;5028426;28;20029;-84
2023/05/12 03:56:23;;;;;;;41.38;22.23;;;14.40;99.90;;;;;;5010082;28;20018;-83
2023/05/12 03:58:48;;;;;;;34.13;19.80;;;14.40;99.90;;;;;;5030076;28;20014;-84
2023/05/12 04:01:14;;;;;;;40.22;20.48;;;14.40;99.90;;;;;;5024874;28;20025;-83
2023/05/12 04:03:40;;;;;;;39.80;20.58;;;14.40;99.90;;;;;;5008021;28;20018;-83
2023/05/12 04:06:06;;;;;;;34.42;19.67;;;14.40;99.90;;;;;;5010554;28;20037;-83
2023/05/12 04:08:32;;;;;;;31.27;18.02;;;14.40;99.90;;;;;;5007426;28;20482;-84
2023/05/12 04:11:02;;;;;;;27.48;17.48;;;14.40;99.90;;;;;;5023968;28;20039;-83
2023/05/12 04:13:28;;;;;;;31.30;19.85;;;14.40;99.90;;;;;;5025800;28;20372;-84
2023/05/12 04:15:57;;;;;;;28.65;16.52;;;14.40;99.90;;;;;;5003231;28;20417;-82
2023/05/12 04:18:24;;;;;;;32.40;17.20;;;14.40;99.90;;;;;;5005113;28;20044;-83
2023/05/12 04:20:50;;;;;;;26.75;16.00;;;14.40;99.90;;;;;;5004620;28;20116;-83
2023/05/12 04:23:15;;;;;;;29.70;15.68;;;14.40;99.90;;;;;;5026445;28;20108;-84
2023/05/12 04:25:41;;;;;;;26.02;15.98;;;14.40;99.90;;;;;;5009331;28;20032;-83
2023/05/12 04:28:08;;;;;;;26.83;16.27;;;14.40;99.90;;;;;;5008753;28;20020;-84
2023/05/12 04:30:33;;;;;;;26.60;15.95;;;14.40;99.90;;;;;;5009596;28;20023;-83
2023/05/12 04:33:00;;;;;;;27.85;16.13;;;14.40;99.90;;;;;;5026218;28;20108;-83
2023/05/12 04:35:26;;;;;;;23.23;15.18;;;14.40;99.90;;;;;;5007523;28;20025;-83
2023/05/12 04:37:52;;;;;;;23.80;14.98;;;14.50;99.90;;;;;;5010533;28;20112;-83
2023/05/12 04:40:17;;;;;;;24.33;15.57;;;14.50;99.90;;;;;;5025519;28;20025;-83
2023/05/12 04:42:43;;;;;;;23.38;16.02;;;14.50;99.90;;;;;;5027820;28;20061;-81
2023/05/12 04:45:09;;;;;;;25.00;15.43;;;14.50;99.90;;;;;;5008039;28;20032;-82
2023/05/12 04:47:34;;;;;;;24.63;15.68;;;14.50;99.90;;;;;;5027979;28;20096;-81
2023/05/12 04:50:00;;;;;;;23.25;15.63;;;14.50;99.90;;;;;;5012685;28;20021;-82
2023/05/12 04:52:25;;;;;;;23.58;14.98;;;14.50;99.90;;;;;;5025336;28;20033;-81
2023/05/12 04:54:52;;;;;;;23.67;15.18;;;14.60;99.90;;;;;;5007806;28;20148;-82
2023/05/12 04:57:17;;;;;;;23.10;15.15;;;14.60;99.90;;;;;;5025620;28;20362;-82
2023/05/12 04:59:43;;;;;;;24.60;15.65;;;14.60;99.90;;;;;;5009334;28;20055;-82
2023/05/12 05:02:09;;;;;;;21.83;14.73;;;14.70;99.90;;;;;;5026069;28;20132;-81
2023/05/12 05:04:37;;;;;;;20.70;14.27;;;14.70;99.90;;;;;;5008497;28;20486;-82
2023/05/12 05:07:03;;;;;;;23.25;14.27;;;14.80;99.90;;;;;;5016839;28;20453;-81
2023/05/12 05:09:29;;;;;;;19.83;12.82;;;14.70;99.90;;;;;;5007313;28;20033;-81
2023/05/12 05:11:54;;;;;;;21.38;14.35;;;14.70;99.90;;;;;;5026572;28;20034;-81
2023/05/12 05:14:20;;;;;;;20.75;13.73;;;14.80;99.90;;;;;;5006472;28;20036;-81
2023/05/12 05:16:47;;;;;;;18.15;12.70;;;14.80;99.90;;;;;;5024335;28;20028;-81
2023/05/12 05:19:13;;;;;;;16.77;12.13;;;14.80;99.90;;;;;;5008992;28;20108;-81
2023/05/12 05:21:38;;;;;;;15.27;11.07;;;14.70;99.90;;;;;;5007768;28;20090;-80
2023/05/12 05:24:07;;;;;;;18.38;12.52;;;14.80;99.90;;;;;;5027218;28;20025;-82
2023/05/12 05:26:36;;;;;;;16.90;12.27;;;14.70;99.90;;;;;;5025761;28;20025;-83
2023/05/12 05:29:03;;;;;;;18.60;11.45;;;14.80;99.90;;;;;;5027477;28;20017;-81
2023/05/12 05:31:28;;;;;;;17.50;11.40;;;14.80;99.90;;;;;;5025815;28;20037;-82
2023/05/12 05:33:54;;;;;;;19.23;11.07;;;14.80;99.90;;;;;;5014993;28;20026;-82
2023/05/12 05:36:25;;;;;;;15.30;10.73;;;14.80;99.90;;;;;;5008688;28;20404;-82
2023/05/12 05:38:51;;;;;;;13.93;10.80;;;14.80;99.90;;;;;;5000096;28;20124;-82
2023/05/12 05:41:17;;;;;;;15.23;10.90;;;14.80;99.90;;;;;;5008776;28;20029;-82
2023/05/12 05:43:44;;;;;;;12.68;9.57;;;14.80;99.90;;;;;;5011783;28;20041;-82
2023/05/12 05:46:10;;;;;;;13.88;9.13;;;14.90;99.90;;;;;;5028245;28;20018;-82
2023/05/12 05:48:40;;;;;;;11.93;9.30;;;14.80;99.90;;;;;;5021289;28;20448;-81
2023/05/12 05:51:10;;;;;;;12.10;8.68;;;14.90;99.90;;;;;;5027549;28;20021;-82
2023/05/12 05:53:36;;;;;;;10.88;8.55;;;14.80;99.90;;;;;;5028819;28;20022;-81
2023/05/12 05:56:01;;;;;;;12.90;8.38;;;14.90;99.90;;;;;;5011790;28;20039;-81
2023/05/12 05:58:29;;;;;;;11.02;7.50;;;14.90;99.90;;;;;;5027691;28;20091;-83
2023/05/12 06:00:55;;;;;;;11.70;8.07;;;15.00;99.90;;;;;;5030177;28;20041;-81
2023/05/12 06:03:22;;;;;;;10.00;7.13;;;15.00;99.90;;;;;;5030455;28;20492;-81
2023/05/12 06:05:50;;;;;;;10.15;7.65;;;15.10;99.90;;;;;;5011111;28;20803;-81
2023/05/12 06:08:16;;;;;;;12.00;7.03;;;15.20;99.90;;;;;;5011036;28;20071;-81
2023/05/12 06:10:41;;;;;;;8.60;7.10;;;15.20;99.90;;;;;;5028245;28;20037;-82
2023/05/12 06:13:07;;;;;;;9.60;7.20;;;15.30;99.90;;;;;;5027931;28;20368;-80
2023/05/12 06:15:33;;;;;;;8.75;7.35;;;15.30;99.90;;;;;;5023925;28;20030;-82
2023/05/12 06:18:00;;;;;;;7.22;6.50;;;15.40;99.90;;;;;;5027739;28;20045;-83
2023/05/12 06:20:26;;;;;;;16.17;6.85;;;15.50;99.90;;;;;;5008177;28;20116;-80
2023/05/12 06:22:54;;;;;;;8.07;7.15;;;15.50;99.90;;;;;;5029116;28;20108;-83
2023/05/12 06:25:19;;;;;;;7.88;6.18;;;15.70;99.90;;;;;;5030744;28;20021;-82
2023/05/12 06:27:45;;;;;;;10.73;6.95;;;15.70;99.90;;;;;;5029979;28;20026;-82
2023/05/12 06:30:11;;;;;;;7.20;6.50;;;15.90;99.90;;;;;;5040664;28;20021;-84
2023/05/12 06:32:37;;;;;;;8.73;6.78;;;16.10;99.90;;;;;;5052814;28;20033;-82
2023/05/12 06:35:02;;;;;;;8.55;6.65;;;16.20;99.90;;;;;;5029537;28;20026;-82
2023/05/12 06:37:28;;;;;;;10.85;6.32;;;16.30;99.90;;;;;;5006776;28;20028;-82
2023/05/12 06:39:54;;;;;;;12.38;6.30;;;16.40;99.90;;;;;;5028412;28;20552;-82
2023/05/12 06:42:22;;;;;;;9.40;6.00;;;16.50;99.90;;;;;;5027836;28;20033;-81
2023/05/12 06:44:47;;;;;;;9.88;6.40;;;16.60;99.90;;;;;;5017415;28;20067;-82
2023/05/12 06:47:13;;;;;;;9.02;5.80;;;16.60;99.90;;;;;;5028734;28;20406;-82
2023/05/12 06:49:38;;;;;;;5.47;4.95;;;16.70;99.90;;;;;;5028477;28;20033;-82
2023/05/12 06:52:07;;;;;;;6.95;4.93;;;16.80;99.90;;;;;;5027303;28;20108;-82
2023/05/12 06:54:33;;;;;;;9.15;5.05;;;16.80;99.90;;;;;;5009535;28;20107;-81
2023/05/12 06:56:59;;;;;;;6.68;5.10;;;16.80;99.90;;;;;;5026803;28;20025;-81
2023/05/12 06:59:25;;;;;;;5.68;4.47;;;16.80;99.90;;;;;;5010946;28;20105;-81
2023/05/12 07:01:50;;;;;;;4.95;4.40;;;16.90;99.90;;;;;;5027647;28;20392;-82
2023/05/12 07:04:16;;;;;;;8.02;5.20;;;17.00;99.90;;;;;;5026319;28;20496;-82
2023/05/12 07:06:42;;;;;;;10.57;5.18;;;17.00;99.90;;;;;;5027305;28;20029;-83
2023/05/12 07:09:07;;;;;;;8.30;4.82;;;17.00;99.90;;;;;;5031664;28;20031;-81
2023/05/12 07:11:36;;;;;;;8.00;4.43;;;17.00;99.90;;;;;;5016958;28;20038;-82
2023/05/12 07:14:01;;;;;;;6.55;4.38;;;17.10;99.90;;;;;;5028158;28;20033;-81
2023/05/12 07:16:27;;;;;;;4.50;4.10;;;17.20;99.90;;;;;;5026992;28;20018;-81
2023/05/12 07:18:53;;;;;;;6.43;4.35;;;17.30;99.90;;;;;;5019129;28;20033;-82
2023/05/12 07:21:19;;;;;;;4.53;3.92;;;17.30;99.90;;;;;;5027861;28;20060;-81
2023/05/12 07:23:44;;;;;;;3.88;3.50;;;17.40;99.90;;;;;;5008821;28;20022;-82
2023/05/12 07:26:10;;;;;;;3.22;2.92;;;17.40;99.90;;;;;;5027950;28;20030;-81
2023/05/12 07:28:36;;;;;;;4.15;3.60;;;17.20;99.90;;;;;;5009379;28;20018;-81
2023/05/12 07:31:08;;;;;;;3.40;3.10;;;17.30;99.90;;;;;;5010605;28;20540;-81
2023/05/12 07:33:35;;;;;;;5.47;3.70;;;17.50;99.90;;;;;;5007796;28;20041;-82
2023/05/12 07:36:01;;;;;;;3.85;2.90;;;17.50;99.90;;;;;;5027986;28;20029;-81
2023/05/12 07:38:27;;;;;;;6.72;2.92;;;17.60;99.90;;;;;;5026489;28;20060;-82
2023/05/12 07:40:53;;;;;;;3.45;2.67;;;17.60;99.90;;;;;;5023152;28;20029;-81
2023/05/12 07:43:19;;;;;;;5.65;2.50;;;17.60;99.90;;;;;;5027244;28;20139;-81
2023/05/12 07:45:45;;;;;;;3.00;2.78;;;17.60;99.90;;;;;;5025064;28;20022;-80
2023/05/12 07:48:11;;;;;;;2.90;2.70;;;17.70;99.90;;;;;;5027759;28;20377;-80
2023/05/12 07:50:40;;;;;;;2.90;2.70;;;17.70;99.90;;;;;;5026733;28;20030;-80
2023/05/12 07:53:06;;;;;;;2.92;2.72;;;17.70;99.90;;;;;;5001683;28;20175;-81
2023/05/12 07:55:34;;;;;;;2.83;2.63;;;17.70;99.90;;;;;;5027622;28;20423;-80
2023/05/12 07:58:00;;;;;;;3.10;2.90;;;17.70;99.90;;;;;;5025240;28;20029;-80
2023/05/12 08:00:26;;;;;;;9.60;3.17;;;17.70;99.90;;;;;;5025883;28;20598;-81
2023/05/12 08:02:52;;;;;;;3.10;2.90;;;17.90;99.90;;;;;;5008360;28;20076;-80
2023/05/12 08:05:18;;;;;;;2.80;2.60;;;17.90;99.90;;;;;;5010483;28;20061;-80
2023/05/12 08:07:45;;;;;;;2.97;2.78;;;17.80;99.90;;;;;;5026052;28;20087;-80
2023/05/12 08:10:14;;;;;;;3.90;2.42;;;17.80;99.90;;;;;;5008633;28;20460;-81
2023/05/12 08:12:40;;;;;;;2.50;2.30;;;17.60;99.90;;;;;;5026548;28;20131;-82
2023/05/12 08:15:07;;;;;;;2.67;2.40;;;17.60;99.90;;;;;;5007526;28;20151;-81
2023/05/12 08:17:33;;;;;;;4.03;2.45;;;17.60;99.90;;;;;;5027377;28;20060;-80
2023/05/12 08:19:59;;;;;;;4.95;2.17;;;17.50;99.90;;;;;;5008734;28;20028;-79
2023/05/12 08:22:25;;;;;;;2.25;2.15;;;17.50;99.90;;;;;;5026125;28;20025;-80
2023/05/12 08:24:51;;;;;;;3.55;2.15;;;17.60;99.90;;;;;;5004080;28;20372;-80
2023/05/12 08:27:17;;;;;;;6.53;2.80;;;17.60;99.90;;;;;;5022919;28;20014;-80
2023/05/12 08:31:39;;;;;;;3.88;2.65;;;17.50;99.90;;;;;;5087339;27;1295636;-81
2023/05/12 08:34:05;;;;;;;5.70;2.90;;;17.60;99.90;;;;;;5116732;28;20020;-79
2023/05/12 08:36:31;;;;;;;5.97;2.30;;;17.50;99.90;;;;;;5115595;28;20027;-80
2023/05/12 08:38:57;;;;;;;2.45;2.25;;;17.50;99.90;;;;;;5096464;28;20631;-80
2023/05/12 08:41:43;;;;;;;4.78;2.53;;;17.50;99.90;;;;;;5117563;28;20016;-80
2023/05/12 08:44:10;;;;;;;3.63;2.10;;;17.40;99.90;;;;;;5097368;28;20080;-80
2023/05/12 08:46:36;;;;;;;2.63;2.47;;;17.50;99.90;;;;;;5116691;28;20024;-80
2023/05/12 08:49:04;;;;;;;3.17;2.90;;;17.50;99.90;;;;;;5115642;28;20076;-80
2023/05/12 08:51:31;;;;;;;2.92;2.63;;;17.60;99.90;;;;;;5112452;28;20305;-80
2023/05/12 08:53:58;;;;;;;2.38;2.20;;;17.60;99.90;;;;;;5116024;28;20094;-80
2023/05/12 08:56:24;;;;;;;5.55;2.35;;;17.70;99.90;;;;;;5096541;28;20016;-80
2023/05/12 08:58:51;;;;;;;5.88;2.42;;;17.80;99.90;;;;;;5105593;28;20103;-80
2023/05/12 09:01:17;;;;;;;2.83;2.55;;;17.80;99.90;;;;;;5103157;28;20383;-80
2023/05/12 09:03:45;;;;;;;6.43;2.78;;;17.80;99.90;;;;;;5117624;28;20020;-80
2023/05/12 09:06:12;;;;;;;2.58;2.40;;;17.90;99.90;;;;;;5118285;28;20110;-80
2023/05/12 09:08:39;;;;;;;2.47;2.20;;;17.90;99.90;;;;;;5117512;28;20477;-80
2023/05/12 09:11:05;;;;;;;2.28;2.10;;;18.10;99.90;;;;;;5086072;28;20069;-81
2023/05/12 09:14:00;;;;;;;6.80;2.10;;;18.20;99.90;;;;;;5112833;28;20239;-80
2023/05/12 09:16:29;;;;;;;3.75;1.88;;;18.30;99.90;;;;;;5113660;28;20027;-80
2023/05/12 09:18:58;;;;;;;4.00;2.50;;;18.40;99.90;;;;;;5113854;28;20030;-80
2023/05/12 09:21:25;;;;;;;2.78;2.25;;;18.60;99.90;;;;;;5114081;28;20024;-79
2023/05/12 09:23:57;;;;;;;4.63;2.28;;;18.60;99.90;;;;;;5097443;28;20161;-80
2023/05/12 09:26:25;;;;;;;3.53;2.30;;;18.60;99.90;;;;;;5114122;28;20034;-80
2023/05/12 09:29:07;;;;;;;2.15;2.05;;;18.90;99.90;;;;;;5097284;28;20364;-81
2023/05/12 09:31:33;;;;;;;4.47;2.00;;;19.20;99.90;;;;;;5085182;28;20059;-81
2023/05/12 09:34:01;;;;;;;2.50;2.30;;;19.40;99.90;;;;;;5101697;28;20532;-82
2023/05/12 09:36:27;;;;;;;2.50;2.17;;;19.60;99.90;;;;;;5114458;28;20114;-81
2023/05/12 09:39:07;;;;;;;4.10;2.25;;;19.80;99.90;;;;;;5113767;28;20054;-80
2023/05/12 09:41:36;;;;;;;2.72;2.53;;;19.90;99.90;;;;;;5106739;28;20116;-80
2023/05/12 09:44:02;;;;;;;2.50;2.30;;;20.00;99.90;;;;;;5101311;28;20045;-80
2023/05/12 09:46:28;;;;;;;8.32;2.20;;;20.20;99.90;;;;;;5103106;28;20032;-81
2023/05/12 09:48:57;;;;;;;3.20;2.65;;;20.50;99.90;;;;;;5085986;28;20738;-81
2023/05/12 09:51:24;;;;;;;4.68;2.75;;;20.70;99.90;;;;;;5101963;28;20077;-80
2023/05/12 09:53:50;;;;;;;3.15;2.78;;;20.90;99.90;;;;;;5099110;28;20012;-80
2023/05/12 09:56:17;;;;;;;2.75;2.33;;;21.20;99.90;;;;;;5102286;28;20020;-80
2023/05/12 09:58:47;;;;;;;2.53;2.33;;;21.40;99.90;;;;;;5082719;28;20027;-80
2023/05/12 10:01:15;;;;;;;2.53;2.40;;;21.50;99.90;;;;;;5099408;28;20054;-81
2023/05/12 10:03:42;;;;;;;6.13;2.47;;;21.70;99.90;;;;;;5103575;28;20027;-80
2023/05/12 10:06:13;;;;;;;3.10;2.85;;;22.00;99.90;;;;;;5100393;28;20020;-80
2023/05/12 10:09:12;;;;;;;5.53;2.50;;;22.10;99.90;;;;;;5103108;28;20020;-80
2023/05/12 10:11:40;;;;;;;2.80;2.47;;;21.90;99.90;;;;;;5058988;28;20474;-81
2023/05/12 10:14:08;;;;;;;3.03;2.83;;;22.00;99.90;;;;;;5099001;28;20103;-81
2023/05/12 10:16:37;;;;;;;2.85;2.65;;;22.20;99.90;;;;;;5098525;28;20023;-81
2023/05/12 10:19:05;;;;;;;5.97;2.63;;;22.40;99.90;;;;;;5084613;28;20470;-80
2023/05/12 10:21:32;;;;;;;3.00;2.60;;;22.50;99.90;;;;;;5075521;28;20155;-81
2023/05/12 10:23:58;;;;;;;3.05;2.75;;;23.00;99.90;;;;;;5085436;28;20027;-80
2023/05/12 10:26:24;;;;;;;2.80;2.60;;;23.20;99.90;;;;;;5081139;28;20093;-80
2023/05/12 10:28:51;;;;;;;3.58;3.28;;;23.50;99.90;;;;;;5083447;28;20027;-80
2023/05/12 10:31:17;;;;;;;3.00;2.80;;;23.60;99.60;;;;;;5099463;28;20474;-83
2023/05/12 10:33:42;;;;;;;3.10;2.80;;;23.80;98.20;;;;;;5098005;28;20030;-81
2023/05/12 10:36:18;;;;;;;5.78;3.00;;;23.60;98.40;;;;;;5101385;28;20453;-82
2023/05/12 10:38:48;;;;;;;5.72;3.05;;;23.50;98.40;;;;;;5097960;28;20536;-80
2023/05/12 10:41:15;;;;;;;4.40;3.05;;;23.50;99.80;;;;;;5083873;28;20028;-81
2023/05/12 10:43:45;;;;;;;4.60;3.17;;;23.70;98.80;;;;;;5099412;28;20038;-80
2023/05/12 10:46:11;;;;;;;3.42;3.13;;;23.70;98.60;;;;;;5076407;28;20033;-80
2023/05/12 10:49:07;;;;;;;4.95;3.03;;;23.50;97.30;;;;;;5045805;28;20026;-79
2023/05/12 10:51:37;;;;;;;3.22;2.92;;;23.50;96.90;;;;;;5046856;28;20105;-78
2023/05/12 10:54:04;;;;;;;3.88;3.05;;;23.40;98.00;;;;;;5056041;28;20111;-81
2023/05/12 10:56:40;;;;;;;2.85;2.65;;;23.60;98.00;;;;;;5030938;28;20025;-80
2023/05/12 10:59:18;;;;;;;4.07;2.83;;;23.90;97.50;;;;;;5047551;28;20025;-80
2023/05/12 11:02:02;;;;;;;3.25;3.05;;;24.10;96.30;;;;;;5068805;28;20229;-83
2023/05/12 11:04:40;;;;;;;3.50;3.20;;;24.10;95.30;;;;;;5077938;28;20055;-86
2023/05/12 11:07:09;;;;;;;3.05;2.85;;;23.90;95.50;;;;;;5081997;28;20039;-87
2023/05/12 11:09:40;;;;;;;3.50;3.20;;;23.70;95.70;;;;;;5061918;28;20480;-80
2023/05/12 11:12:07;;;;;;;5.10;2.70;;;23.70;95.60;;;;;;5070856;28;20035;-87
2023/05/12 11:14:39;;;;;;;3.50;2.90;;;23.70;96.90;;;;;;5057319;28;20030;-87
2023/05/12 11:17:08;;;;;;;;;;;23.60;96.00;;;;;;5059909;28;20027;-86
2023/05/12 11:19:34;;;;;;;9.18;4.32;;;23.70;95.90;;;;;;5067234;28;19909;-85
2023/05/12 11:22:10;;;;;;;3.20;3.00;;;24.00;95.80;;;;;;5088791;28;20041;-87
2023/05/12 11:24:37;;;;;;;3.20;3.00;;;24.10;95.30;;;;;;5056345;28;20078;-85
2023/05/12 11:27:04;;;;;;;2.78;2.58;;;24.10;94.30;;;;;;5057283;28;20027;-79
2023/05/12 11:29:30;;;;;;;4.10;2.90;;;24.20;94.90;;;;;;5071671;28;20020;-80
2023/05/12 11:31:59;;;;;;;5.28;3.22;;;24.50;94.00;;;;;;5066903;28;20033;-80
2023/05/12 11:34:26;;;;;;;3.03;2.83;;;24.60;93.50;;;;;;5055217;28;20482;-79
2023/05/12 11:36:54;;;;;;;3.53;3.33;;;24.50;92.40;;;;;;5073592;28;20028;-80
2023/05/12 11:39:24;;;;;;;5.45;3.70;;;24.40;92.10;;;;;;5071392;28;20356;-80
2023/05/12 11:41:50;;;;;;;3.28;3.08;;;24.40;92.10;;;;;;5054726;28;20500;-80
2023/05/12 11:44:24;;;;;;;5.60;3.00;;;24.50;92.00;;;;;;5068460;28;20096;-80
2023/05/12 11:47:07;;;;;;;3.78;3.47;;;24.70;92.10;;;;;;5070909;28;20021;-87
2023/05/12 11:49:43;;;;;;;;;;;24.60;92.00;;;;;;5063237;28;20028;-88
2023/05/12 11:52:09;;;;;;;5.38;3.63;;;24.60;92.00;;;;;;5076458;28;19989;-83
2023/05/12 11:54:36;;;;;;;4.25;3.22;;;24.60;91.20;;;;;;5058140;28;20047;-80
2023/05/12 11:57:02;;;;;;;4.82;2.90;;;24.60;91.80;;;;;;5072928;28;20114;-80
2023/05/12 11:59:29;;;;;;;3.72;3.53;;;24.60;91.80;;;;;;5070459;28;20032;-79
2023/05/12 12:01:56;;;;;;;6.47;3.65;;;24.50;91.40;;;;;;5069645;28;20024;-80
2023/05/12 12:04:41;;;;;;;4.95;2.97;;;24.50;91.80;;;;;;5054522;28;20071;-89
2023/05/12 12:07:08;;;;;;;3.70;3.40;;;24.30;91.40;;;;;;5076064;28;20039;-86
2023/05/12 12:09:41;;;;;;;3.67;3.20;;;24.50;91.10;;;;;;5075198;28;20106;-87
2023/05/12 12:12:12;;;;;;;3.00;2.80;;;24.50;90.90;;;;;;5059729;28;20013;-87
2023/05/12 12:14:40;;;;;;;3.58;3.28;;;24.60;91.50;;;;;;5061086;28;20024;-85
2023/05/12 12:17:08;;;;;;;3.28;2.95;;;24.60;91.30;;;;;;5079812;28;20023;-83
2023/05/12 12:19:33;;;;;;;6.40;3.45;;;24.60;91.00;;;;;;5072895;28;20028;-86
2023/05/12 12:21:59;;;;;;;4.47;3.20;;;24.50;90.30;;;;;;5055772;28;20020;-87
2023/05/12 12:24:25;;;;;;;5.60;3.35;;;24.50;90.30;;;;;;5074210;28;20109;-87
2023/05/12 12:26:50;;;;;;;8.38;3.10;;;24.60;90.20;;;;;;5067696;28;20021;-89
2023/05/12 12:29:18;;;;;;;4.65;2.83;;;24.50;88.80;;;;;;5049996;28;20082;-78
2023/05/12 12:31:44;;;;;;;3.83;2.92;;;24.40;90.70;;;;;;5065281;28;20032;-79
2023/05/12 12:34:10;;;;;;;3.33;2.95;;;24.60;90.50;;;;;;5069065;28;20047;-79
2023/05/12 12:36:36;;;;;;;3.65;3.33;;;24.60;90.40;;;;;;5193093;22;20638;-88
2023/05/12 12:39:04;;;;;;;4.05;3.75;;;24.60;90.10;;;;;;5048305;28;20052;-87
2023/05/12 12:41:32;;;;;;;3.50;3.22;;;24.70;90.80;;;;;;5063087;28;20017;-89